Terminal Aerodrome Forecast
Issued by NWS

Home | Current Version | Previous Version | Graphics & Text | Print | Product List | Glossary On
Versions: 1 2 3 4 5 6 7 8 9 10 11 12 13 14 15 16 17 18
000
FTUS43 KIWX 171121
TAFSBN
TAF
KSBN 171121Z 1712/1812 22008KT 2SM BR OVC003
      TEMPO 1712/1715 1/2SM -DZ FG
     FM171500 25010KT 3SM BR OVC003
     FM180000 26010KT 3SM BR VCSH OVC006
     FM181000 26006KT 4SM BR OVC010=

USA.gov is the U.S. government's official web portal to all federal, state and local government web resources and services.